Time;durP1;ratioP1;P1;durP2;ratioP2;P2;SDS_P1;SDS_P2;PMS_P1;PMS_P2;Temp;Humidity;BMP_temperature;BMP_pressure;BME280_temperature;BME280_humidity;BME280_pressure;Samples;Min_cycle;Max_cycle;Signal;HPM_P1;HPM_P2
2023/02/01 00:00:10;;;;;;;4.50;2.65;;;6.30;48.40;;;;;;5112748;28;20734;-75
2023/02/01 00:02:40;;;;;;;6.15;3.25;;;6.30;47.70;;;;;;5113129;28;20227;-76
2023/02/01 00:05:10;;;;;;;4.70;2.80;;;6.40;47.90;;;;;;5113026;28;20592;-75
2023/02/01 00:07:37;;;;;;;5.03;3.20;;;6.30;47.90;;;;;;5113263;28;20390;-74
2023/02/01 00:10:06;;;;;;;6.60;3.83;;;6.40;48.00;;;;;;5113380;28;20275;-74
2023/02/01 00:12:33;;;;;;;4.32;2.67;;;6.40;48.10;;;;;;5114766;28;20188;-74
2023/02/01 00:15:02;;;;;;;4.40;3.30;;;6.40;48.00;;;;;;5114614;28;20283;-75
2023/02/01 00:17:29;;;;;;;4.97;3.15;;;6.40;48.30;;;;;;5114486;28;20666;-74
2023/02/01 00:19:56;;;;;;;4.20;2.92;;;6.40;48.20;;;;;;5114519;28;20184;-75
2023/02/01 00:22:25;;;;;;;4.38;3.03;;;6.50;48.10;;;;;;5114504;28;20227;-74
2023/02/01 00:24:52;;;;;;;6.03;3.75;;;6.50;47.70;;;;;;5114348;28;20282;-74
2023/02/01 00:27:21;;;;;;;4.60;2.28;;;6.40;48.10;;;;;;5114170;28;20307;-74
2023/02/01 00:29:48;;;;;;;5.00;2.92;;;6.40;47.80;;;;;;5114348;28;20211;-75
2023/02/01 00:32:15;;;;;;;5.40;3.10;;;6.40;47.90;;;;;;5114427;28;20189;-75
2023/02/01 00:34:42;;;;;;;6.13;3.00;;;6.40;48.20;;;;;;5114216;28;20227;-75
2023/02/01 00:37:09;;;;;;;5.25;3.20;;;6.40;47.70;;;;;;5114266;28;20228;-75
2023/02/01 00:39:38;;;;;;;6.03;3.13;;;6.40;47.60;;;;;;5114084;28;20227;-78
2023/02/01 00:42:05;;;;;;;4.25;2.55;;;6.40;47.90;;;;;;5114260;28;20243;-74
2023/02/01 00:44:35;;;;;;;5.65;2.35;;;6.40;47.90;;;;;;5114050;28;20188;-74
2023/02/01 00:47:02;;;;;;;5.43;2.90;;;6.50;47.40;;;;;;5113788;28;20224;-74
2023/02/01 00:49:32;;;;;;;3.72;2.28;;;6.50;47.20;;;;;;5113904;28;20313;-74
2023/02/01 00:52:01;;;;;;;5.10;3.15;;;6.40;47.20;;;;;;5113843;28;20261;-74
2023/02/01 00:54:28;;;;;;;8.77;2.72;;;6.40;47.60;;;;;;5113704;28;20275;-74
2023/02/01 00:56:56;;;;;;;5.05;3.10;;;6.40;47.20;;;;;;5113888;28;20227;-74
2023/02/01 00:59:23;;;;;;;4.82;3.03;;;6.40;47.20;;;;;;5113666;28;20279;-75
2023/02/01 01:01:50;;;;;;;4.97;2.72;;;6.50;46.90;;;;;;5113847;28;20228;-75
2023/02/01 01:04:17;;;;;;;4.93;3.20;;;6.50;46.80;;;;;;5113664;28;20345;-75
2023/02/01 01:06:44;;;;;;;3.50;2.25;;;6.50;47.10;;;;;;5113523;28;20279;-75
2023/02/01 01:09:12;;;;;;;4.93;2.60;;;6.50;47.10;;;;;;5113479;28;20220;-74
2023/02/01 01:11:39;;;;;;;2.92;2.00;;;6.50;47.00;;;;;;5113600;28;20271;-74
2023/02/01 01:14:09;;;;;;;5.03;2.80;;;6.40;47.00;;;;;;5113420;28;20283;-74
2023/02/01 01:16:37;;;;;;;4.25;3.00;;;6.40;47.20;;;;;;5113710;28;20279;-74
2023/02/01 01:19:04;;;;;;;3.45;2.10;;;6.50;47.30;;;;;;5113676;28;20192;-74
2023/02/01 01:21:32;;;;;;;4.28;3.10;;;6.40;47.30;;;;;;5113094;28;20638;-74
2023/02/01 01:23:59;;;;;;;3.53;2.15;;;6.40;47.70;;;;;;5113230;28;20283;-74
2023/02/01 01:26:28;;;;;;;3.50;2.42;;;6.40;48.10;;;;;;5113211;28;20283;-74
2023/02/01 01:28:56;;;;;;;5.70;2.88;;;6.40;48.30;;;;;;5113195;28;20251;-75
2023/02/01 01:31:25;;;;;;;4.32;2.63;;;6.40;48.40;;;;;;5113342;28;20184;-75
2023/02/01 01:33:54;;;;;;;3.95;2.65;;;6.40;48.40;;;;;;5113239;28;20252;-75
2023/02/01 01:36:22;;;;;;;3.40;2.28;;;6.40;48.30;;;;;;5112998;28;20279;-75
2023/02/01 01:38:51;;;;;;;5.05;3.10;;;6.40;48.50;;;;;;5113029;28;20291;-74
2023/02/01 01:41:21;;;;;;;4.43;2.85;;;6.40;48.60;;;;;;5113175;28;20256;-75
2023/02/01 01:43:50;;;;;;;5.57;3.28;;;6.40;48.80;;;;;;5113101;28;20271;-75
2023/02/01 01:46:19;;;;;;;3.97;2.65;;;6.40;49.10;;;;;;5112913;28;20259;-78
2023/02/01 01:48:50;;;;;;;3.15;2.30;;;6.40;49.30;;;;;;5113162;28;20255;-74
2023/02/01 01:51:21;;;;;;;5.55;3.30;;;6.40;49.60;;;;;;5113043;28;20271;-75
2023/02/01 01:53:56;;;;;;;4.70;2.63;;;6.40;49.70;;;;;;5112815;28;20285;-75
2023/02/01 01:56:23;;;;;;;5.32;3.17;;;6.40;50.00;;;;;;5113169;28;20278;-75
2023/02/01 01:58:50;;;;;;;5.70;3.08;;;6.40;50.40;;;;;;5112921;28;20230;-74
2023/02/01 02:01:18;;;;;;;5.82;3.05;;;6.30;50.80;;;;;;5113039;28;20611;-76
2023/02/01 02:03:48;;;;;;;5.30;3.33;;;6.30;50.90;;;;;;5112781;28;20196;-75
2023/02/01 02:06:23;;;;;;;6.38;2.85;;;6.30;51.00;;;;;;5112917;28;20220;-75
2023/02/01 02:08:50;;;;;;;4.50;2.78;;;6.30;51.30;;;;;;5112610;28;20250;-75
2023/02/01 02:11:18;;;;;;;5.90;3.00;;;6.30;51.60;;;;;;5112916;28;20280;-75
2023/02/01 02:13:51;;;;;;;5.32;3.85;;;6.30;51.60;;;;;;5112732;28;20710;-75
2023/02/01 02:16:36;;;;;;;4.15;2.60;;;6.20;51.70;;;;;;5112664;28;20263;-74
2023/02/01 02:19:30;;;;;;;3.70;2.42;;;6.20;52.00;;;;;;5112698;28;20611;-74
2023/02/01 02:22:18;;;;;;;4.38;3.25;;;6.20;51.80;;;;;;5112938;28;20195;-74
2023/02/01 02:25:01;;;;;;;4.38;2.88;;;6.30;51.80;;;;;;5112722;28;20245;-76
2023/02/01 02:27:49;;;;;;;3.58;2.72;;;6.20;51.80;;;;;;5112571;28;20228;-75
2023/02/01 02:30:41;;;;;;;5.47;3.55;;;6.20;52.00;;;;;;5112535;28;20722;-75
2023/02/01 02:33:42;;;;;;;4.93;2.78;;;6.20;52.00;;;;;;5085428;28;20234;-75
2023/02/01 02:36:17;;;;;;;3.63;2.72;;;6.10;51.90;;;;;;5116559;28;20187;-76
2023/02/01 02:38:51;;;;;;;4.07;2.70;;;6.10;52.10;;;;;;5116533;28;20245;-75
2023/02/01 02:55:27;;;;;;;4.88;2.65;;;6.00;50.90;;;;;;5116182;28;20554;-74
2023/02/01 03:06:15;;;;;;;5.57;2.42;;;6.00;50.70;;;;;;5116243;28;20188;-75
2023/02/01 03:08:45;;;;;;;4.20;2.42;;;6.00;50.50;;;;;;5116001;28;20239;-75
2023/02/01 03:11:15;;;;;;;4.82;3.60;;;6.00;50.30;;;;;;5115939;28;20622;-75
2023/02/01 03:13:45;;;;;;;3.97;2.70;;;6.00;50.30;;;;;;5116062;28;20222;-74
2023/02/01 03:16:17;;;;;;;4.45;2.15;;;6.00;50.50;;;;;;5116260;28;20196;-74
2023/02/01 03:18:51;;;;;;;4.43;3.25;;;6.10;50.20;;;;;;5115937;28;20195;-75
2023/02/01 03:21:24;;;;;;;5.18;3.75;;;6.10;50.20;;;;;;5115850;28;20176;-75
2023/02/01 03:23:52;;;;;;;4.90;2.72;;;6.10;50.00;;;;;;5115512;28;20283;-74
2023/02/01 03:26:23;;;;;;;5.50;3.05;;;6.10;49.90;;;;;;5115526;28;20600;-75
2023/02/01 03:28:55;;;;;;;4.55;3.30;;;6.00;50.10;;;;;;5115419;28;20708;-74
2023/02/01 03:31:23;;;;;;;3.83;2.58;;;6.00;50.20;;;;;;5115643;28;20271;-75
2023/02/01 03:33:50;;;;;;;4.00;2.53;;;6.10;50.20;;;;;;5115493;28;20192;-74
2023/02/01 03:36:27;;;;;;;3.22;2.45;;;6.00;50.10;;;;;;5115374;28;20279;-74
2023/02/01 03:39:02;;;;;;;5.45;2.90;;;6.00;50.20;;;;;;5115283;28;20292;-74
2023/02/01 03:41:36;;;;;;;8.80;2.90;;;6.00;50.40;;;;;;5115177;28;20253;-74
2023/02/01 03:44:11;;;;;;;3.80;2.95;;;6.00;50.40;;;;;;5115156;28;20228;-74
2023/02/01 03:46:42;;;;;;;4.50;2.55;;;6.00;50.80;;;;;;5114892;28;20251;-75
2023/02/01 03:49:12;;;;;;;7.55;3.55;;;6.00;51.10;;;;;;5115136;28;20281;-75
2023/02/01 03:51:42;;;;;;;6.40;3.25;;;6.10;51.50;;;;;;5115186;28;20600;-75
2023/02/01 03:54:13;;;;;;;4.88;2.80;;;6.10;51.90;;;;;;5115146;28;20275;-74
2023/02/01 03:56:45;;;;;;;3.63;3.10;;;6.10;52.20;;;;;;5115120;28;20283;-74
2023/02/01 03:59:12;;;;;;;4.90;2.78;;;6.10;52.80;;;;;;5114736;28;20268;-75
2023/02/01 04:01:39;;;;;;;6.30;2.50;;;6.10;53.20;;;;;;5114924;28;20284;-74
2023/02/01 04:04:06;;;;;;;3.80;2.40;;;6.10;53.30;;;;;;5114798;28;20192;-75
2023/02/01 04:06:33;;;;;;;5.38;2.40;;;6.10;53.60;;;;;;5114633;28;20283;-75
2023/02/01 04:09:02;;;;;;;7.95;2.70;;;6.10;53.40;;;;;;5114480;28;20247;-75
2023/02/01 04:11:29;;;;;;;4.25;2.75;;;6.20;53.10;;;;;;5114698;27;20275;-75
2023/02/01 04:13:56;;;;;;;4.05;2.78;;;6.20;53.20;;;;;;5114650;28;20661;-75
2023/02/01 04:16:24;;;;;;;5.28;2.70;;;6.20;54.00;;;;;;5114690;28;20235;-75
2023/02/01 04:18:51;;;;;;;3.53;2.40;;;6.20;54.40;;;;;;5114743;28;20219;-75
2023/02/01 04:21:18;;;;;;;5.70;2.75;;;6.10;54.80;;;;;;5114482;28;20279;-75
2023/02/01 04:23:45;;;;;;;3.88;2.30;;;6.10;55.40;;;;;;5114372;28;20275;-75
2023/02/01 04:26:13;;;;;;;5.93;2.50;;;6.10;55.50;;;;;;5114632;28;20271;-75
2023/02/01 04:28:43;;;;;;;5.07;2.67;;;6.00;55.60;;;;;;5114364;28;20654;-75
2023/02/01 04:31:10;;;;;;;4.88;3.13;;;6.00;55.70;;;;;;5114456;28;20229;-75
2023/02/01 04:33:38;;;;;;;5.00;2.45;;;6.00;55.80;;;;;;5114346;28;20188;-75
2023/02/01 04:36:05;;;;;;;3.75;2.47;;;6.00;55.70;;;;;;5114307;28;20271;-75
2023/02/01 04:38:32;;;;;;;3.88;2.80;;;6.10;55.30;;;;;;5114170;28;20223;-75
2023/02/01 04:41:00;;;;;;;5.50;3.28;;;6.10;55.50;;;;;;5113930;28;20206;-75
2023/02/01 04:43:28;;;;;;;4.03;2.72;;;6.20;55.70;;;;;;5114114;28;20279;-74
2023/02/01 04:45:55;;;;;;;4.90;3.38;;;6.10;56.70;;;;;;5113781;28;20185;-75
2023/02/01 04:48:22;;;;;;;6.93;2.83;;;6.10;56.80;;;;;;5114057;28;20661;-75
2023/02/01 04:50:50;;;;;;;5.18;3.30;;;6.10;57.20;;;;;;5113983;28;20228;-75
2023/02/01 04:53:17;;;;;;;4.40;2.53;;;6.10;57.10;;;;;;5113940;28;20227;-75
2023/02/01 04:55:49;;;;;;;5.18;3.30;;;6.00;56.80;;;;;;5113524;28;20275;-75
2023/02/01 04:58:16;;;;;;;5.68;3.08;;;6.10;56.90;;;;;;5113642;28;20204;-75
2023/02/01 05:00:49;;;;;;;6.05;2.55;;;6.10;56.60;;;;;;5113900;28;20553;-75
2023/02/01 05:03:17;;;;;;;6.40;3.08;;;6.10;56.40;;;;;;5113875;28;20558;-75
2023/02/01 05:05:44;;;;;;;4.72;3.38;;;6.10;56.20;;;;;;5113727;28;20279;-75
2023/02/01 05:08:11;;;;;;;3.55;2.50;;;6.00;56.20;;;;;;5113657;28;20279;-75
2023/02/01 05:10:38;;;;;;;6.18;3.13;;;6.00;56.20;;;;;;5113603;28;20287;-74
2023/02/01 05:15:51;;;;;;;4.30;2.60;;;5.90;56.30;;;;;;5113621;28;20245;-76
2023/02/01 05:18:18;;;;;;;4.78;2.45;;;5.90;56.50;;;;;;5113546;28;20723;-74
2023/02/01 05:20:50;;;;;;;4.13;2.60;;;6.00;56.60;;;;;;5113445;28;20274;-74
2023/02/01 05:23:17;;;;;;;4.47;2.80;;;6.00;56.80;;;;;;5113634;28;20187;-74
2023/02/01 05:25:44;;;;;;;5.18;2.40;;;6.00;57.00;;;;;;5113530;28;20223;-75
2023/02/01 05:28:11;;;;;;;4.25;2.50;;;5.90;57.00;;;;;;5113342;28;20188;-76
2023/02/01 05:30:40;;;;;;;5.07;3.17;;;5.90;57.40;;;;;;5113580;28;20606;-74
2023/02/01 05:33:09;;;;;;;5.35;2.75;;;5.90;57.40;;;;;;5113722;28;20223;-74
2023/02/01 05:35:40;;;;;;;5.65;2.92;;;5.90;57.30;;;;;;5113507;28;20280;-74
2023/02/01 05:38:07;;;;;;;5.47;2.45;;;5.80;57.40;;;;;;5113491;28;20271;-75
2023/02/01 05:40:34;;;;;;;5.85;3.22;;;5.80;57.60;;;;;;5113079;28;20733;-74
2023/02/01 05:43:01;;;;;;;4.82;3.10;;;5.80;57.40;;;;;;5112956;28;20279;-74
2023/02/01 05:45:28;;;;;;;4.93;3.00;;;5.80;57.20;;;;;;5113468;28;20358;-74
2023/02/01 05:47:55;;;;;;;5.30;4.07;;;5.80;57.20;;;;;;5112890;28;20263;-74
2023/02/01 05:50:23;;;;;;;4.97;3.30;;;5.80;57.40;;;;;;5113293;28;20788;-74
2023/02/01 05:52:50;;;;;;;4.25;2.40;;;5.80;57.30;;;;;;5113335;28;20192;-75
2023/02/01 05:55:17;;;;;;;4.50;3.40;;;5.80;57.20;;;;;;5113108;28;20279;-75
2023/02/01 05:57:44;;;;;;;5.90;3.17;;;5.80;57.60;;;;;;5113146;28;20612;-75
2023/02/01 06:00:12;;;;;;;4.75;2.80;;;5.90;57.40;;;;;;5113494;28;20220;-75
2023/02/01 06:02:40;;;;;;;5.40;3.42;;;5.90;57.30;;;;;;5113772;28;20614;-75
2023/02/01 06:05:08;;;;;;;3.90;2.92;;;5.90;57.30;;;;;;5113495;28;20279;-75
2023/02/01 06:07:36;;;;;;;3.85;2.70;;;5.90;57.10;;;;;;5113258;28;20226;-75
2023/02/01 06:10:04;;;;;;;5.15;3.05;;;5.90;57.10;;;;;;5117279;28;20277;-75
2023/02/01 06:12:31;;;;;;;5.22;3.15;;;5.90;57.10;;;;;;5117441;28;20196;-74
2023/02/01 06:14:59;;;;;;;5.85;3.35;;;5.90;56.70;;;;;;5113680;28;20252;-74
2023/02/01 06:17:30;;;;;;;4.30;3.10;;;5.90;56.60;;;;;;5116074;28;20184;-74
2023/02/01 06:20:03;;;;;;;4.57;3.25;;;5.90;56.80;;;;;;5117290;28;20187;-76
2023/02/01 06:22:36;;;;;;;3.97;2.65;;;5.80;57.00;;;;;;5116028;28;20189;-75
2023/02/01 06:25:10;;;;;;;4.15;2.60;;;5.80;56.90;;;;;;5116128;28;20224;-76
2023/02/01 06:27:44;;;;;;;7.82;3.00;;;5.80;56.90;;;;;;5116674;28;20193;-74
2023/02/01 06:30:14;;;;;;;6.90;2.60;;;5.70;56.70;;;;;;5116325;28;20747;-75
2023/02/01 06:32:45;;;;;;;6.95;2.90;;;5.80;56.70;;;;;;5116982;28;20288;-75
2023/02/01 06:35:15;;;;;;;4.57;2.70;;;5.80;56.70;;;;;;5113234;28;20256;-76
2023/02/01 06:37:44;;;;;;;9.48;3.10;;;5.80;56.60;;;;;;5115806;28;20218;-75
2023/02/01 06:40:15;;;;;;;4.28;2.85;;;5.80;56.90;;;;;;5114507;28;20195;-76
2023/02/01 06:42:43;;;;;;;4.30;2.90;;;5.80;57.00;;;;;;5116177;28;20630;-75
2023/02/01 06:45:11;;;;;;;5.38;3.05;;;5.80;57.00;;;;;;5115960;28;20231;-76
2023/02/01 06:47:43;;;;;;;4.50;2.97;;;5.70;57.00;;;;;;5114715;28;20224;-76
2023/02/01 06:50:11;;;;;;;3.92;2.85;;;5.70;57.00;;;;;;5115828;28;20612;-75
2023/02/01 06:52:44;;;;;;;5.47;3.38;;;5.80;57.00;;;;;;5115321;28;20212;-75
2023/02/01 06:55:11;;;;;;;5.53;3.00;;;5.80;57.10;;;;;;5112064;28;20566;-75
2023/02/01 06:57:38;;;;;;;5.15;3.38;;;5.90;57.00;;;;;;5115712;28;20189;-75
2023/02/01 07:00:06;;;;;;;5.53;3.00;;;5.90;57.20;;;;;;5116442;28;20283;-75
2023/02/01 07:02:33;;;;;;;5.13;3.20;;;5.90;57.00;;;;;;5116273;28;20228;-75
2023/02/01 07:05:00;;;;;;;5.68;3.47;;;6.00;57.00;;;;;;5115963;28;20249;-75
2023/02/01 07:07:27;;;;;;;5.10;3.38;;;6.00;57.00;;;;;;5116209;28;20279;-75
2023/02/01 07:09:55;;;;;;;5.18;3.60;;;5.90;57.20;;;;;;5116003;28;20212;-75
2023/02/01 07:12:22;;;;;;;4.93;3.25;;;5.90;57.30;;;;;;5116112;28;20271;-75
2023/02/01 07:14:49;;;;;;;4.30;2.97;;;5.90;57.30;;;;;;5114183;28;20231;-75
2023/02/01 07:17:17;;;;;;;7.05;3.40;;;5.90;57.40;;;;;;5116285;28;20286;-75
2023/02/01 07:19:44;;;;;;;5.68;3.33;;;5.90;57.60;;;;;;5115752;28;20219;-74
2023/02/01 07:22:11;;;;;;;5.53;3.45;;;6.00;57.70;;;;;;5115674;28;20295;-75
2023/02/01 07:24:38;;;;;;;5.15;3.40;;;6.10;57.20;;;;;;5115768;28;20658;-75
2023/02/01 07:27:06;;;;;;;5.32;3.47;;;6.00;57.50;;;;;;5115852;28;20283;-75
2023/02/01 07:29:33;;;;;;;5.32;2.95;;;6.00;57.70;;;;;;5115651;28;20323;-76
2023/02/01 07:32:02;;;;;;;6.28;3.00;;;6.10;57.60;;;;;;5115834;28;20231;-75
2023/02/01 07:34:30;;;;;;;4.93;3.50;;;6.10;57.40;;;;;;5115871;28;20188;-75
2023/02/01 07:36:57;;;;;;;5.97;3.20;;;6.20;57.20;;;;;;5115758;28;20193;-75
2023/02/01 07:39:24;;;;;;;4.53;3.10;;;6.20;57.30;;;;;;5115642;28;20288;-75
2023/02/01 07:41:51;;;;;;;5.93;3.10;;;6.10;57.40;;;;;;5115716;28;20228;-75
2023/02/01 07:44:23;;;;;;;9.38;3.53;;;6.10;57.70;;;;;;5115341;28;20192;-75
2023/02/01 07:46:51;;;;;;;5.15;2.83;;;6.10;58.00;;;;;;5115241;28;20226;-76
2023/02/01 07:49:22;;;;;;;6.25;3.95;;;6.20;58.00;;;;;;5115041;28;20248;-75
2023/02/01 07:51:49;;;;;;;6.93;3.20;;;6.20;58.00;;;;;;5115539;28;20192;-76
2023/02/01 07:54:16;;;;;;;6.15;3.65;;;6.10;58.30;;;;;;5115322;28;20219;-75
2023/02/01 07:56:43;;;;;;;5.07;3.28;;;6.10;58.30;;;;;;5115630;28;20287;-76
2023/02/01 07:59:12;;;;;;;4.22;2.65;;;6.10;58.40;;;;;;5115558;28;20271;-75
2023/02/01 08:01:41;;;;;;;4.35;2.63;;;6.20;58.40;;;;;;5115248;28;20219;-75
2023/02/01 08:04:12;;;;;;;5.00;3.65;;;6.20;58.40;;;;;;5115426;28;20718;-76
2023/02/01 08:06:39;;;;;;;6.05;2.90;;;6.20;58.30;;;;;;5115256;28;20278;-75
2023/02/01 08:09:10;;;;;;;4.63;3.25;;;6.10;58.50;;;;;;5114971;28;20300;-75
2023/02/01 08:11:38;;;;;;;5.55;3.25;;;6.20;58.80;;;;;;5115369;28;20542;-75
2023/02/01 08:14:06;;;;;;;4.95;3.38;;;6.20;58.40;;;;;;5115163;28;20591;-75
2023/02/01 08:16:34;;;;;;;5.82;3.17;;;6.20;58.90;;;;;;5114836;28;20195;-75
2023/02/01 08:19:03;;;;;;;5.50;3.15;;;6.20;58.90;;;;;;5114988;28;20647;-75
2023/02/01 08:21:36;;;;;;;7.70;3.80;;;6.20;59.60;;;;;;5114925;28;20298;-75
2023/02/01 08:24:04;;;;;;;5.05;3.15;;;6.30;59.10;;;;;;5114934;28;20258;-75
2023/02/01 08:26:32;;;;;;;5.32;2.92;;;6.30;58.80;;;;;;5114683;28;20219;-75
2023/02/01 08:29:00;;;;;;;5.65;2.80;;;6.40;58.80;;;;;;5114555;28;20288;-75
2023/02/01 08:31:29;;;;;;;4.25;2.78;;;6.40;58.60;;;;;;5113838;28;20686;-75
2023/02/01 08:33:57;;;;;;;3.65;2.20;;;6.50;58.40;;;;;;5114521;28;20226;-75
2023/02/01 08:36:27;;;;;;;5.72;2.42;;;6.60;58.40;;;;;;5114626;28;20188;-75
2023/02/01 08:38:55;;;;;;;5.80;3.50;;;6.50;58.50;;;;;;5114789;28;20228;-75
2023/02/01 08:41:29;;;;;;;4.30;2.42;;;6.60;58.40;;;;;;5114566;28;20220;-75
2023/02/01 08:43:56;;;;;;;4.25;2.45;;;6.70;57.90;;;;;;5114619;28;20189;-75
2023/02/01 08:46:24;;;;;;;5.15;2.95;;;6.60;58.10;;;;;;5114237;28;20307;-75
2023/02/01 08:48:51;;;;;;;4.35;2.40;;;6.60;58.20;;;;;;5114150;28;20617;-75
2023/02/01 08:51:20;;;;;;;3.97;2.95;;;6.60;58.20;;;;;;5113962;28;20577;-75
2023/02/01 08:53:49;;;;;;;3.50;2.47;;;6.70;58.20;;;;;;5114363;28;20377;-75
2023/02/01 08:56:17;;;;;;;5.80;2.65;;;6.80;57.80;;;;;;5114497;28;20214;-76
2023/02/01 08:58:45;;;;;;;4.60;2.67;;;6.80;57.70;;;;;;5114226;28;20279;-76
2023/02/01 09:01:14;;;;;;;3.60;2.65;;;6.80;57.70;;;;;;5114300;28;20596;-76
2023/02/01 09:03:41;;;;;;;6.65;2.70;;;6.80;57.80;;;;;;5114146;28;20231;-75
2023/02/01 09:06:10;;;;;;;4.07;2.88;;;6.80;58.30;;;;;;5114220;28;20282;-75
2023/02/01 09:08:38;;;;;;;4.18;2.22;;;6.80;57.90;;;;;;5113933;28;20394;-75
2023/02/01 09:11:09;;;;;;;5.57;2.45;;;6.90;57.80;;;;;;5113676;28;20373;-74
2023/02/01 09:13:36;;;;;;;3.58;2.30;;;7.00;57.40;;;;;;5114012;28;20272;-75
2023/02/01 09:16:03;;;;;;;3.38;1.98;;;7.10;57.30;;;;;;5113770;28;20192;-75
2023/02/01 09:18:30;;;;;;;3.30;1.80;;;7.10;57.40;;;;;;5113864;28;20237;-75
2023/02/01 09:20:57;;;;;;;4.82;2.22;;;7.30;57.30;;;;;;5113748;28;20224;-75
2023/02/01 09:23:24;;;;;;;5.72;2.50;;;7.40;56.90;;;;;;5113459;28;20228;-75
2023/02/01 09:25:51;;;;;;;4.15;2.55;;;7.40;56.80;;;;;;5113554;28;20196;-75
2023/02/01 09:28:20;;;;;;;4.28;2.15;;;7.50;56.70;;;;;;5113714;28;20200;-75
2023/02/01 09:30:47;;;;;;;3.72;2.35;;;7.50;56.80;;;;;;5113773;28;20265;-75
2023/02/01 09:33:14;;;;;;;4.80;1.80;;;7.70;56.70;;;;;;5113323;28;20279;-76
2023/02/01 09:35:41;;;;;;;3.88;2.30;;;7.80;56.60;;;;;;5113358;28;20200;-75
2023/02/01 09:38:08;;;;;;;3.42;2.13;;;7.90;56.40;;;;;;5113539;28;20247;-75
2023/02/01 09:40:36;;;;;;;3.30;2.00;;;7.90;56.30;;;;;;5113393;28;20550;-75
2023/02/01 09:43:26;;;;;;;3.65;2.10;;;7.90;56.20;;;;;;5113422;28;20515;-75
2023/02/01 09:46:00;;;;;;;2.92;2.10;;;7.90;56.20;;;;;;5112822;28;20570;-75
2023/02/01 09:48:32;;;;;;;3.88;2.30;;;7.80;56.50;;;;;;5113758;28;20192;-75
2023/02/01 09:51:03;;;;;;;4.38;3.20;;;7.80;56.90;;;;;;5113473;28;20278;-75
2023/02/01 09:53:34;;;;;;;13.15;7.50;;;7.70;57.20;;;;;;5113334;28;20280;-76
2023/02/01 09:56:06;;;;;;;4.45;2.85;;;7.80;57.40;;;;;;5112988;28;20271;-76
2023/02/01 09:58:38;;;;;;;4.78;3.45;;;7.80;57.30;;;;;;5113353;28;20181;-75
2023/02/01 10:01:16;;;;;;;4.82;2.60;;;7.90;57.30;;;;;;5113425;28;20188;-75
2023/02/01 10:03:43;;;;;;;4.45;2.72;;;7.90;56.80;;;;;;5113629;28;20286;-75
2023/02/01 10:06:34;;;;;;;4.65;2.67;;;7.90;57.10;;;;;;5111497;28;20246;-75
2023/02/01 10:09:17;;;;;;;4.45;2.67;;;8.00;57.50;;;;;;5113212;28;20245;-75
2023/02/01 10:12:01;;;;;;;5.30;2.60;;;8.00;57.00;;;;;;5113370;28;20310;-75
2023/02/01 10:14:52;;;;;;;4.25;2.83;;;8.10;56.70;;;;;;5113286;28;20590;-75
2023/02/01 10:17:31;;;;;;;3.85;2.15;;;8.30;56.40;;;;;;5113091;28;20658;-75
2023/02/01 10:20:09;;;;;;;3.08;2.22;;;8.30;56.40;;;;;;5113403;28;20279;-75
2023/02/01 10:22:42;;;;;;;4.05;2.80;;;8.40;55.70;;;;;;5113114;28;20199;-77
2023/02/01 10:25:17;;;;;;;3.78;2.58;;;8.40;55.60;;;;;;5113370;28;20523;-75
2023/02/01 10:27:44;;;;;;;4.05;2.42;;;8.40;55.70;;;;;;5113039;28;20241;-75
2023/02/01 10:30:20;;;;;;;3.88;2.30;;;8.30;55.30;;;;;;5112735;28;20581;-76
2023/02/01 10:32:50;;;;;;;3.47;2.08;;;8.30;55.30;;;;;;5113134;28;20534;-76
2023/02/01 10:35:23;;;;;;;3.25;2.45;;;8.10;55.50;;;;;;5112574;28;20231;-76
2023/02/01 10:37:50;;;;;;;4.38;2.63;;;8.20;55.80;;;;;;5113137;28;20238;-75
2023/02/01 10:40:23;;;;;;;4.35;2.55;;;8.20;55.50;;;;;;5112633;28;20279;-76
2023/02/01 10:42:52;;;;;;;3.63;2.20;;;8.20;55.80;;;;;;5112936;28;20189;-75
2023/02/01 10:45:25;;;;;;;3.28;1.92;;;8.30;55.10;;;;;;5113064;28;20196;-75
2023/02/01 10:47:55;;;;;;;3.15;2.13;;;8.30;55.10;;;;;;5112368;28;20227;-76
2023/02/01 10:50:36;;;;;;;2.67;1.38;;;8.40;54.70;;;;;;5112852;28;20254;-76
2023/02/01 10:53:06;;;;;;;2.83;1.60;;;8.50;54.70;;;;;;5113018;28;20550;-75
2023/02/01 10:55:38;;;;;;;2.55;1.63;;;8.70;54.20;;;;;;5115727;28;20199;-75
2023/02/01 10:58:07;;;;;;;4.68;2.15;;;9.00;53.30;;;;;;5116338;28;20287;-75
2023/02/01 11:00:45;;;;;;;7.55;2.05;;;9.10;52.30;;;;;;5116371;28;20203;-75
2023/02/01 11:03:31;;;;;;;3.50;1.75;;;9.10;52.20;;;;;;5116620;28;20192;-76
2023/02/01 11:05:58;;;;;;;3.33;1.90;;;9.30;52.20;;;;;;5116556;28;20275;-75
2023/02/01 11:08:26;;;;;;;2.55;1.58;;;9.40;52.20;;;;;;5116088;28;20275;-75
2023/02/01 11:11:00;;;;;;;5.18;1.98;;;9.70;51.30;;;;;;5116143;28;20299;-76
2023/02/01 11:13:31;;;;;;;4.35;2.03;;;9.70;50.70;;;;;;5115795;28;20181;-76
2023/02/01 11:16:04;;;;;;;3.65;2.22;;;9.60;51.00;;;;;;5116297;28;20220;-76
2023/02/01 11:18:33;;;;;;;6.90;2.90;;;9.70;50.70;;;;;;5116123;28;20303;-75
2023/02/01 11:21:00;;;;;;;3.17;1.98;;;9.70;50.70;;;;;;5115755;28;20599;-75
2023/02/01 11:23:30;;;;;;;2.70;1.55;;;9.80;50.30;;;;;;5115945;28;20192;-75
2023/02/01 11:25:59;;;;;;;3.78;1.75;;;10.00;48.90;;;;;;5116215;28;20215;-76
2023/02/01 11:28:30;;;;;;;3.65;2.17;;;10.10;48.50;;;;;;5116000;28;20702;-75
2023/02/01 11:31:01;;;;;;;4.45;2.17;;;10.20;48.40;;;;;;5115849;28;20251;-75
2023/02/01 11:33:33;;;;;;;4.30;2.20;;;10.30;48.00;;;;;;5115657;28;20733;-76
2023/02/01 11:36:02;;;;;;;2.90;1.95;;;10.40;48.30;;;;;;5115373;28;20212;-75
2023/02/01 11:38:30;;;;;;;3.15;1.90;;;10.40;47.50;;;;;;5115730;28;20188;-75
2023/02/01 11:41:14;;;;;;;6.20;1.90;;;10.30;47.90;;;;;;5115757;28;20199;-76
2023/02/01 11:43:53;;;;;;;3.58;1.80;;;10.30;47.20;;;;;;5115839;28;20192;-75
2023/02/01 11:46:26;;;;;;;5.03;1.95;;;10.20;47.00;;;;;;5115268;28;20219;-75
2023/02/01 11:48:55;;;;;;;2.95;1.55;;;10.10;47.40;;;;;;5115517;28;20180;-75
2023/02/01 11:51:35;;;;;;;3.45;1.83;;;9.90;48.10;;;;;;5114999;28;20227;-75
2023/02/01 11:54:15;;;;;;;3.15;2.15;;;9.60;48.40;;;;;;5115524;28;20283;-75
2023/02/01 11:56:55;;;;;;;3.83;1.80;;;9.40;49.50;;;;;;5115570;28;20271;-76
2023/02/01 11:59:37;;;;;;;4.63;2.20;;;9.20;49.90;;;;;;5115299;28;20196;-76
2023/02/01 12:02:32;;;;;;;4.05;2.03;;;9.10;50.30;;;;;;5115467;28;20422;-75
2023/02/01 12:05:14;;;;;;;3.60;2.35;;;9.10;50.60;;;;;;5097824;28;20193;-75
2023/02/01 12:08:01;;;;;;;3.08;2.08;;;9.10;49.90;;;;;;5115622;28;20271;-76
2023/02/01 12:10:40;;;;;;;2.88;1.85;;;9.20;50.60;;;;;;5114850;28;20199;-76
2023/02/01 12:13:19;;;;;;;3.53;2.20;;;9.30;50.10;;;;;;5115092;28;20664;-75
2023/02/01 12:15:56;;;;;;;3.85;2.10;;;9.30;50.50;;;;;;5114920;28;20688;-76
2023/02/01 12:19:02;;;;;;;6.07;2.40;;;9.40;50.40;;;;;;5114956;28;20386;-75
2023/02/01 12:21:54;;;;;;;4.63;2.38;;;9.40;49.90;;;;;;5114838;28;20279;-75
2023/02/01 12:24:44;;;;;;;3.20;2.30;;;9.50;49.70;;;;;;5114711;28;20275;-75
2023/02/01 12:27:35;;;;;;;4.45;2.10;;;9.50;50.10;;;;;;5114944;28;20279;-75
2023/02/01 12:30:17;;;;;;;2.95;2.10;;;9.60;49.70;;;;;;5114783;28;20690;-75
2023/02/01 12:32:58;;;;;;;5.53;2.53;;;9.60;50.10;;;;;;5114535;28;20252;-75
2023/02/01 12:35:54;;;;;;;3.40;1.65;;;9.60;50.20;;;;;;5114496;28;20240;-76
2023/02/01 12:39:03;;;;;;;3.17;2.03;;;9.60;50.40;;;;;;5114522;28;20279;-75
2023/02/01 12:41:44;;;;;;;3.70;1.48;;;9.70;50.00;;;;;;5073012;28;20275;-75
2023/02/01 12:44:18;;;;;;;3.42;2.10;;;9.80;50.50;;;;;;5114705;28;20272;-75
2023/02/01 12:46:49;;;;;;;4.55;2.00;;;9.70;50.40;;;;;;5114391;28;20289;-75
2023/02/01 12:49:20;;;;;;;3.65;1.75;;;9.70;50.40;;;;;;5114007;28;20268;-75
2023/02/01 12:51:51;;;;;;;4.82;2.42;;;9.50;50.80;;;;;;5114381;28;20324;-75
2023/02/01 12:54:22;;;;;;;3.15;1.92;;;9.50;50.90;;;;;;5114359;28;20276;-75
2023/02/01 12:56:55;;;;;;;2.97;1.80;;;9.40;50.70;;;;;;5114539;28;20287;-75
2023/02/01 12:59:26;;;;;;;5.90;2.80;;;9.40;50.80;;;;;;5114355;28;20196;-76
2023/02/01 13:01:58;;;;;;;3.10;1.90;;;9.30;50.70;;;;;;5114146;28;20188;-75
2023/02/01 13:04:32;;;;;;;3.90;1.73;;;9.30;50.80;;;;;;5114690;28;20196;-75
2023/02/01 13:07:09;;;;;;;4.80;2.38;;;9.30;50.60;;;;;;5114073;28;20280;-75
2023/02/01 13:09:42;;;;;;;2.75;1.55;;;9.20;50.90;;;;;;5114132;28;20195;-75
2023/02/01 13:12:20;;;;;;;3.75;1.95;;;9.10;51.20;;;;;;5113822;28;20298;-75
2023/02/01 13:14:50;;;;;;;3.05;2.20;;;9.00;51.60;;;;;;5114044;27;20271;-76
2023/02/01 13:17:23;;;;;;;2.65;1.85;;;8.90;51.50;;;;;;5113230;28;20249;-75
2023/02/01 13:19:54;;;;;;;2.40;1.52;;;8.80;51.70;;;;;;5114012;28;20188;-76
2023/02/01 13:22:26;;;;;;;4.53;2.35;;;8.70;51.90;;;;;;5113902;28;20533;-75
2023/02/01 13:24:57;;;;;;;4.47;1.80;;;8.60;52.20;;;;;;5113566;28;20279;-76
2023/02/01 13:27:30;;;;;;;3.78;1.90;;;8.50;52.00;;;;;;5113668;28;20730;-75
2023/02/01 13:30:01;;;;;;;3.85;2.30;;;8.50;52.50;;;;;;5113913;28;20625;-75
2023/02/01 13:33:03;;;;;;;3.40;2.40;;;8.40;52.60;;;;;;5113827;28;20303;-75
2023/02/01 13:36:00;;;;;;;4.35;2.00;;;8.30;52.80;;;;;;5113242;28;20219;-75
2023/02/01 13:38:54;;;;;;;4.53;2.20;;;8.30;51.70;;;;;;5113518;28;20230;-75
2023/02/01 13:41:27;;;;;;;3.50;2.22;;;8.30;52.00;;;;;;5113409;28;20188;-75
2023/02/01 13:43:58;;;;;;;5.50;2.22;;;8.30;51.60;;;;;;5113762;28;20237;-75